createdAt,value
2023-03-25T00:01:49.053Z,7.53
2023-03-25T00:26:21.016Z,7.08
2023-03-25T00:29:29.449Z,7.23
2023-03-25T00:32:31.356Z,7.37
2023-03-25T00:35:43.121Z,7.24
2023-03-25T00:39:27.634Z,7.35
2023-03-25T00:42:45.369Z,7.15
2023-03-25T00:45:58.348Z,7.16
2023-03-25T00:50:01.654Z,7.10
2023-03-25T00:57:47.039Z,7.13
2023-03-25T01:01:16.964Z,6.90
2023-03-25T01:04:25.606Z,6.87
2023-03-25T01:07:29.490Z,7.01
2023-03-25T01:10:50.252Z,6.95
2023-03-25T01:14:02.497Z,6.89
2023-03-25T01:17:17.626Z,6.98
2023-03-25T01:20:32.914Z,7.03
2023-03-25T01:23:37.943Z,7.19
2023-03-25T01:26:41.573Z,7.32
2023-03-25T01:29:50.040Z,7.30
2023-03-25T01:32:54.380Z,7.16
2023-03-25T01:35:56.370Z,6.98
2023-03-25T01:38:59.320Z,7.19
2023-03-25T01:42:01.268Z,7.21
2023-03-25T01:45:32.954Z,7.16
2023-03-25T01:48:38.930Z,7.06
2023-03-25T01:51:47.671Z,6.91
2023-03-25T01:55:01.910Z,7.03
2023-03-25T02:01:32.390Z,6.26
2023-03-25T02:04:39.701Z,5.58
2023-03-25T02:11:40.931Z,5.06
2023-03-25T02:15:09.118Z,5.12
2023-03-25T02:18:34.182Z,5.20
2023-03-25T02:21:46.296Z,5.28
2023-03-25T02:25:12.713Z,5.29
2023-03-25T02:28:25.674Z,5.34
2023-03-25T02:31:48.788Z,5.41
2023-03-25T02:35:02.606Z,5.46
2023-03-25T02:38:26.172Z,5.55
2023-03-25T02:41:51.767Z,5.75
2023-03-25T02:44:53.228Z,5.78
2023-03-25T02:47:56.878Z,5.63
2023-03-25T02:50:58.601Z,5.82
2023-03-25T02:54:06.766Z,5.76
2023-03-25T02:57:08.658Z,5.80
2023-03-25T03:00:15.348Z,5.68
2023-03-25T03:03:17.046Z,5.61
2023-03-25T03:06:18.994Z,5.63
2023-03-25T03:09:39.921Z,5.60
2023-03-25T03:13:12.441Z,5.63
2023-03-25T03:16:34.179Z,5.52
2023-03-25T03:19:52.461Z,5.55
2023-03-25T03:23:04.590Z,5.65
2023-03-25T03:26:14.399Z,5.67
2023-03-25T03:29:34.812Z,5.63
2023-03-25T03:32:54.898Z,6.02
2023-03-25T03:36:08.034Z,6.11
2023-03-25T03:39:24.953Z,6.24
2023-03-25T03:42:30.458Z,6.27
2023-03-25T03:45:48.384Z,6.18
2023-03-25T03:48:53.736Z,6.23
2023-03-25T03:52:02.123Z,6.25
2023-03-25T03:55:14.951Z,6.19
2023-03-25T03:58:22.393Z,6.22
2023-03-25T04:01:47.817Z,6.07
2023-03-25T04:04:50.453Z,6.12
2023-03-25T04:07:58.810Z,6.16
2023-03-25T04:11:09.797Z,6.11
2023-03-25T04:14:11.400Z,6.22
2023-03-25T04:17:13.057Z,6.28
2023-03-25T04:20:17.338Z,6.40
2023-03-25T04:23:19.782Z,6.34
2023-03-25T04:26:21.768Z,6.24
2023-03-25T04:29:24.739Z,6.34
2023-03-25T04:32:28.092Z,6.38
2023-03-25T04:35:33.008Z,6.30
2023-03-25T04:38:37.732Z,6.22
2023-03-25T04:41:39.468Z,6.20
2023-03-25T04:44:40.997Z,6.11
2023-03-25T04:47:45.027Z,6.24
2023-03-25T04:50:46.608Z,6.02
2023-03-25T04:53:48.180Z,5.99
2023-03-25T04:56:51.125Z,6.15
2023-03-25T04:59:52.836Z,5.93
2023-03-25T05:02:55.911Z,6.11
2023-03-25T05:05:57.541Z,5.97
2023-03-25T05:09:01.707Z,6.00
2023-03-25T05:12:03.310Z,5.94
2023-03-25T05:15:05.614Z,5.81
2023-03-25T05:18:12.628Z,5.90
2023-03-25T05:21:14.188Z,6.00
2023-03-25T05:24:15.759Z,5.91
2023-03-25T05:27:20.148Z,5.99
2023-03-25T05:30:21.786Z,5.97
2023-03-25T05:33:23.314Z,5.90
2023-03-25T05:36:26.250Z,5.83
2023-03-25T05:39:27.827Z,5.98
2023-03-25T05:42:29.393Z,5.80
2023-03-25T05:45:30.977Z,5.91
2023-03-25T05:48:33.136Z,5.80
2023-03-25T05:51:37.993Z,5.80
2023-03-25T05:54:42.226Z,5.84
2023-03-25T05:57:43.970Z,5.91
2023-03-25T06:00:47.093Z,5.97
2023-03-25T06:03:48.801Z,6.02
2023-03-25T06:06:50.605Z,5.90
2023-03-25T06:09:54.317Z,6.03
2023-03-25T06:12:56.079Z,5.88
2023-03-25T06:16:07.408Z,6.07
2023-03-25T06:19:33.223Z,6.06
2023-03-25T06:22:43.821Z,6.01
2023-03-25T06:25:48.257Z,5.95
2023-03-25T06:28:52.586Z,5.97
2023-03-25T06:31:54.514Z,5.89
2023-03-25T06:35:11.001Z,6.05
2023-03-25T06:38:14.078Z,5.93
2023-03-25T06:41:17.757Z,5.91
2023-03-25T06:44:24.349Z,5.99
2023-03-25T06:47:26.295Z,6.24
2023-03-25T06:50:27.944Z,6.09
2023-03-25T06:53:29.752Z,6.25
2023-03-25T06:56:31.370Z,6.23
2023-03-25T06:59:33.085Z,6.20
2023-03-25T07:02:34.721Z,6.40
2023-03-25T07:05:36.432Z,6.39
2023-03-25T07:08:38.080Z,6.48
2023-03-25T07:11:39.897Z,6.52
2023-03-25T07:14:41.621Z,6.34
2023-03-25T07:17:43.282Z,6.32
2023-03-25T07:20:46.169Z,6.39
2023-03-25T07:23:50.871Z,6.37
2023-03-25T07:26:54.489Z,6.28
2023-03-25T07:29:56.141Z,6.31
2023-03-25T07:32:57.953Z,6.34
2023-03-25T07:36:01.956Z,6.33
2023-03-25T07:39:17.313Z,6.32
2023-03-25T07:42:20.817Z,6.37
2023-03-25T07:45:28.704Z,6.43
2023-03-25T07:48:30.686Z,6.48
2023-03-25T07:51:38.720Z,6.41
2023-03-25T07:54:44.235Z,6.35
2023-03-25T07:57:59.554Z,6.56
2023-03-25T08:01:01.482Z,6.65
2023-03-25T08:04:18.780Z,6.81
2023-03-25T08:07:23.094Z,6.53
2023-03-25T08:10:25.020Z,6.75
2023-03-25T08:13:32.616Z,6.94
2023-03-25T08:16:34.433Z,6.91
2023-03-25T08:19:39.125Z,7.19
2023-03-25T08:22:57.057Z,7.46
2023-03-25T08:25:58.927Z,7.61
2023-03-25T08:29:06.191Z,7.82
2023-03-25T08:32:15.025Z,7.66
2023-03-25T08:35:19.584Z,7.31
2023-03-25T08:38:25.673Z,7.77
2023-03-25T08:41:30.660Z,7.89
2023-03-25T08:44:32.443Z,7.63
2023-03-25T08:47:36.670Z,7.95
2023-03-25T08:50:38.477Z,8.00
2023-03-25T08:53:40.065Z,8.11
2023-03-25T08:56:41.721Z,8.52
2023-03-25T08:59:44.603Z,7.97
2023-03-25T09:02:46.453Z,8.13
2023-03-25T09:05:57.284Z,8.08
2023-03-25T09:09:03.204Z,7.68
2023-03-25T09:12:08.886Z,7.70
2023-03-25T09:15:14.481Z,8.03
2023-03-25T09:18:19.240Z,7.84
2023-03-25T09:25:08.933Z,7.64
2023-03-25T09:28:44.714Z,7.86
2023-03-25T09:32:44.914Z,8.37
2023-03-25T09:35:48.815Z,8.34
2023-03-25T09:38:50.705Z,8.13
2023-03-25T09:42:06.076Z,8.01
2023-03-25T09:45:44.137Z,8.21
2023-03-25T09:48:46.699Z,8.08
2023-03-25T09:51:54.660Z,8.13
2023-03-25T09:55:03.211Z,8.32
2023-03-25T09:58:15.446Z,8.05
2023-03-25T10:01:33.386Z,8.29
2023-03-25T10:05:03.362Z,8.57
2023-03-25T10:12:03.644Z,8.78
2023-03-25T10:15:20.545Z,8.67
2023-03-25T10:18:44.003Z,8.51
2023-03-25T10:21:51.757Z,8.55
2023-03-25T10:24:58.916Z,8.20
2023-03-25T10:28:03.269Z,8.38
2023-03-25T10:31:12.247Z,8.11
2023-03-25T10:34:33.520Z,8.18
2023-03-25T10:37:44.946Z,8.07
2023-03-25T10:41:25.768Z,8.40
2023-03-25T10:44:27.451Z,8.40
2023-03-25T10:47:31.969Z,8.48
2023-03-25T10:50:33.794Z,8.74
2023-03-25T10:53:35.952Z,8.52
2023-03-25T10:56:44.495Z,9.10
2023-03-25T11:00:21.167Z,8.82
2023-03-25T11:03:29.754Z,8.77
2023-03-25T11:06:33.808Z,9.65
2023-03-25T11:09:38.373Z,9.78
2023-03-25T11:12:45.594Z,9.70
2023-03-25T11:15:49.564Z,9.79
2023-03-25T11:18:51.942Z,9.58
2023-03-25T11:21:55.828Z,9.89
2023-03-25T11:25:04.752Z,9.39
2023-03-25T11:28:11.545Z,9.70
2023-03-25T11:31:17.306Z,9.38
2023-03-25T11:34:24.303Z,9.07
2023-03-25T11:37:29.930Z,8.91
2023-03-25T11:40:33.008Z,8.76
2023-03-25T11:43:37.977Z,9.22
2023-03-25T11:46:42.539Z,8.76
2023-03-25T11:49:47.588Z,8.71
2023-03-25T11:52:52.731Z,9.16
2023-03-25T11:56:14.402Z,9.50
2023-03-25T11:59:23.210Z,10.11
2023-03-25T12:02:36.879Z,9.60
2023-03-25T12:05:38.501Z,9.51
2023-03-25T12:08:49.026Z,9.20
2023-03-25T12:12:17.384Z,9.45
2023-03-25T12:15:41.437Z,9.58
2023-03-25T12:19:05.293Z,9.08
2023-03-25T12:22:16.984Z,9.06
2023-03-25T12:25:21.341Z,9.22
2023-03-25T12:28:32.542Z,8.98
2023-03-25T12:32:12.152Z,8.76
2023-03-25T12:35:36.307Z,10.32
2023-03-25T12:38:50.333Z,10.73
2023-03-25T12:42:18.088Z,10.93
2023-03-25T12:45:30.806Z,12.42
2023-03-25T12:48:51.469Z,12.75
2023-03-25T12:52:08.652Z,12.70
2023-03-25T12:55:21.607Z,12.76
2023-03-25T12:58:43.701Z,12.86
2023-03-25T13:01:54.746Z,11.70
2023-03-25T13:05:05.033Z,11.35
2023-03-25T13:08:16.810Z,10.59
2023-03-25T13:11:27.403Z,10.10
2023-03-25T13:15:06.747Z,10.11
2023-03-25T13:18:31.045Z,10.44
2023-03-25T13:21:35.205Z,10.56
2023-03-25T13:24:49.737Z,10.18
2023-03-25T13:27:57.463Z,10.38
2023-03-25T13:31:08.653Z,12.11
2023-03-25T13:34:19.691Z,12.37
2023-03-25T13:37:34.271Z,12.60
2023-03-25T13:40:49.513Z,13.60
2023-03-25T13:43:54.219Z,12.11
2023-03-25T13:47:13.781Z,12.99
2023-03-25T13:50:33.644Z,11.28
2023-03-25T13:53:44.188Z,12.01
2023-03-25T13:57:17.255Z,13.50
2023-03-25T14:00:27.676Z,12.40
2023-03-25T14:03:47.736Z,11.32
2023-03-25T14:07:34.324Z,10.69
2023-03-25T14:10:54.571Z,10.43
2023-03-25T14:14:01.920Z,10.11
2023-03-25T14:17:09.095Z,8.91
2023-03-25T14:29:32.093Z,8.77
2023-03-25T14:32:40.107Z,9.63
2023-03-25T14:35:55.143Z,9.09
2023-03-25T14:39:03.827Z,8.94
2023-03-25T14:42:09.239Z,9.22
2023-03-25T14:45:34.235Z,10.61
2023-03-25T14:48:37.683Z,11.20
2023-03-25T14:51:47.649Z,10.25
2023-03-25T14:55:15.084Z,10.58
2023-03-25T14:58:47.742Z,9.90
2023-03-25T15:01:53.049Z,10.50
2023-03-25T15:05:18.297Z,11.01
2023-03-25T15:09:04.732Z,11.09
2023-03-25T15:43:59.454Z,10.37
2023-03-25T15:51:31.934Z,10.83
2023-03-25T15:55:33.291Z,11.07
2023-03-25T16:03:05.925Z,10.53
2023-03-25T16:06:42.672Z,10.55
2023-03-25T16:10:46.326Z,10.38
2023-03-25T16:53:02.604Z,9.16
2023-03-25T16:56:08.750Z,9.08
2023-03-25T16:59:48.919Z,9.08
2023-03-25T17:02:50.679Z,8.81
2023-03-25T17:06:13.171Z,8.61
2023-03-25T17:09:18.206Z,9.08
2023-03-25T17:12:20.425Z,9.12
2023-03-25T17:15:23.746Z,9.08
2023-03-25T17:18:29.800Z,9.12
2023-03-25T17:21:32.874Z,8.98
2023-03-25T17:24:40.289Z,8.91
2023-03-25T17:27:43.493Z,8.96
2023-03-25T17:30:45.361Z,8.85
2023-03-25T17:33:53.488Z,8.30
2023-03-25T17:37:00.113Z,8.70
2023-03-25T17:40:06.607Z,8.66
2023-03-25T17:43:17.362Z,8.56
2023-03-25T17:46:26.081Z,8.45
2023-03-25T17:49:27.570Z,8.43
2023-03-25T17:52:31.774Z,8.41
2023-03-25T17:55:33.476Z,8.33
2023-03-25T17:58:34.964Z,8.38
2023-03-25T18:01:37.068Z,8.34
2023-03-25T18:04:38.594Z,8.22
2023-03-25T18:07:40.170Z,8.13
2023-03-25T18:10:42.126Z,8.00
2023-03-25T18:13:47.773Z,7.78
2023-03-25T18:16:49.798Z,8.05
2023-03-25T18:19:51.289Z,7.94
2023-03-25T18:22:54.666Z,7.81
2023-03-25T18:25:58.151Z,7.71
2023-03-25T18:29:02.062Z,7.91
2023-03-25T18:32:03.679Z,7.83
2023-03-25T18:35:05.451Z,7.85
2023-03-25T18:38:06.960Z,7.82
2023-03-25T18:41:10.473Z,7.61
2023-03-25T18:44:12.000Z,7.51
2023-03-25T18:47:13.574Z,7.45
2023-03-25T18:50:32.375Z,7.47
2023-03-25T18:53:33.923Z,7.47
2023-03-25T18:56:35.614Z,7.49
2023-03-25T18:59:37.077Z,7.25
2023-03-25T19:02:38.648Z,7.32
2023-03-25T19:05:40.269Z,7.37
2023-03-25T19:08:43.439Z,7.36
2023-03-25T19:11:44.976Z,7.26
2023-03-25T19:14:46.733Z,7.32
2023-03-25T19:17:48.786Z,7.28
2023-03-25T19:20:50.614Z,7.05
2023-03-25T19:23:52.434Z,7.23
2023-03-25T19:26:54.045Z,7.36
2023-03-25T19:29:55.525Z,7.33
2023-03-25T19:33:01.739Z,7.44
2023-03-25T19:36:04.438Z,7.55
2023-03-25T19:39:06.147Z,7.50
2023-03-25T19:42:07.684Z,7.52
2023-03-25T19:45:09.750Z,7.46
2023-03-25T19:48:11.520Z,7.22
2023-03-25T19:51:13.002Z,7.06
2023-03-25T19:54:15.271Z,7.19
2023-03-25T19:57:17.046Z,6.92
2023-03-25T20:00:23.344Z,7.07
2023-03-25T20:03:24.884Z,7.09
2023-03-25T20:06:27.057Z,7.07
2023-03-25T20:09:30.182Z,7.01
2023-03-25T20:12:31.703Z,6.97
2023-03-25T20:15:33.242Z,6.88
2023-03-25T20:18:34.750Z,6.93
2023-03-25T20:21:36.961Z,6.92
2023-03-25T20:24:38.541Z,6.91
2023-03-25T20:27:40.606Z,6.96
2023-03-25T20:30:42.077Z,7.00
2023-03-25T20:33:43.805Z,7.11
2023-03-25T20:36:46.574Z,7.18
2023-03-25T20:39:48.743Z,7.24
2023-03-25T20:42:50.352Z,7.26
2023-03-25T20:45:58.141Z,7.28
2023-03-25T20:48:59.641Z,7.22
2023-03-25T20:52:01.431Z,7.15
2023-03-25T20:55:03.307Z,7.23
2023-03-25T20:58:05.733Z,7.17
2023-03-25T21:01:07.833Z,7.28
2023-03-25T21:04:11.462Z,7.02
2023-03-25T21:07:13.474Z,7.05
2023-03-25T21:10:15.016Z,6.92
2023-03-25T21:13:16.513Z,7.05
2023-03-25T21:16:18.007Z,7.03
2023-03-25T21:19:19.503Z,7.04
2023-03-25T21:22:21.836Z,6.96
2023-03-25T21:25:23.422Z,6.97
2023-03-25T21:28:24.879Z,6.90
2023-03-25T21:31:26.708Z,6.93
2023-03-25T21:34:30.212Z,6.97
2023-03-25T21:37:37.564Z,6.89
2023-03-25T21:40:39.099Z,6.83
2023-03-25T21:43:42.218Z,6.72
2023-03-25T21:46:43.747Z,6.69
2023-03-25T21:49:45.237Z,6.60
2023-03-25T21:52:48.019Z,6.61
2023-03-25T21:55:50.172Z,6.55
2023-03-25T21:58:51.792Z,6.56
2023-03-25T22:01:53.568Z,6.52
2023-03-25T22:04:55.015Z,6.39
2023-03-25T22:07:58.664Z,6.54
2023-03-25T22:11:04.322Z,6.55
2023-03-25T22:17:06.523Z,6.51
2023-03-25T22:20:08.710Z,6.53
2023-03-25T22:23:12.373Z,6.58
2023-03-25T22:26:15.666Z,6.61
2023-03-25T22:29:17.182Z,6.55
2023-03-25T22:32:18.711Z,6.62
2023-03-25T22:35:21.619Z,6.67
2023-03-25T22:38:23.125Z,6.59
2023-03-25T22:41:24.711Z,6.60
2023-03-25T22:44:26.522Z,6.52
2023-03-25T22:47:28.144Z,6.56
2023-03-25T22:50:31.421Z,6.34
2023-03-25T22:53:33.043Z,6.33
2023-03-25T22:56:34.674Z,6.23
2023-03-25T22:59:36.380Z,6.30
2023-03-25T23:02:37.907Z,6.40
2023-03-25T23:05:39.441Z,6.34
2023-03-25T23:08:40.943Z,6.38
2023-03-25T23:11:42.472Z,6.37
2023-03-25T23:14:49.113Z,6.26
2023-03-25T23:17:50.597Z,6.43
2023-03-25T23:20:52.209Z,6.82
2023-03-25T23:23:54.659Z,7.00
2023-03-25T23:26:56.436Z,7.01
2023-03-25T23:29:58.349Z,6.90
2023-03-25T23:32:59.831Z,6.92
2023-03-25T23:36:02.662Z,6.88
2023-03-25T23:39:06.342Z,6.84
2023-03-25T23:42:08.306Z,6.82
2023-03-25T23:45:10.781Z,6.88
2023-03-25T23:48:12.504Z,6.87
2023-03-25T23:51:17.476Z,6.76
2023-03-25T23:54:19.018Z,6.61
2023-03-25T23:57:20.746Z,6.49
